sensor_id;sensor_type;location;lat;lon;timestamp;temperature;humidity
43671;DHT22;29267;50.906;7.248;2022-08-01T00:01:24;22.80;84.30
43671;DHT22;29267;50.906;7.248;2022-08-01T00:03:50;22.80;84.10
43671;DHT22;29267;50.906;7.248;2022-08-01T00:06:16;22.80;84.00
43671;DHT22;29267;50.906;7.248;2022-08-01T00:08:41;22.80;83.80
43671;DHT22;29267;50.906;7.248;2022-08-01T00:11:07;22.80;83.80
43671;DHT22;29267;50.906;7.248;2022-08-01T00:13:35;22.80;83.60
43671;DHT22;29267;50.906;7.248;2022-08-01T00:16:00;22.80;83.50
43671;DHT22;29267;50.906;7.248;2022-08-01T00:18:26;22.80;83.30
43671;DHT22;29267;50.906;7.248;2022-08-01T00:20:52;22.80;83.20
43671;DHT22;29267;50.906;7.248;2022-08-01T00:23:18;22.80;83.00
43671;DHT22;29267;50.906;7.248;2022-08-01T00:25:43;22.80;82.90
43671;DHT22;29267;50.906;7.248;2022-08-01T00:28:09;22.80;82.90
43671;DHT22;29267;50.906;7.248;2022-08-01T00:30:35;22.80;82.70
43671;DHT22;29267;50.906;7.248;2022-08-01T00:33:02;22.80;82.60
43671;DHT22;29267;50.906;7.248;2022-08-01T00:35:28;22.80;82.50
43671;DHT22;29267;50.906;7.248;2022-08-01T00:37:54;22.80;82.30
43671;DHT22;29267;50.906;7.248;2022-08-01T00:40:20;22.80;82.20
43671;DHT22;29267;50.906;7.248;2022-08-01T00:42:46;22.80;82.10
43671;DHT22;29267;50.906;7.248;2022-08-01T00:45:12;22.80;82.00
43671;DHT22;29267;50.906;7.248;2022-08-01T00:47:38;22.80;82.00
43671;DHT22;29267;50.906;7.248;2022-08-01T00:50:04;22.80;81.80
43671;DHT22;29267;50.906;7.248;2022-08-01T00:52:31;22.80;81.80
43671;DHT22;29267;50.906;7.248;2022-08-01T00:54:57;22.80;81.80
43671;DHT22;29267;50.906;7.248;2022-08-01T00:57:23;22.90;81.80
43671;DHT22;29267;50.906;7.248;2022-08-01T00:59:49;22.80;81.80
43671;DHT22;29267;50.906;7.248;2022-08-01T01:02:14;22.80;81.60
43671;DHT22;29267;50.906;7.248;2022-08-01T01:04:40;22.80;81.50
43671;DHT22;29267;50.906;7.248;2022-08-01T01:09:57;22.80;81.90
43671;DHT22;29267;50.906;7.248;2022-08-01T01:13:09;22.80;81.50
43671;DHT22;29267;50.906;7.248;2022-08-01T01:15:40;22.80;81.40
43671;DHT22;29267;50.906;7.248;2022-08-01T01:18:23;22.80;81.40
43671;DHT22;29267;50.906;7.248;2022-08-01T01:26:29;22.80;81.00
43671;DHT22;29267;50.906;7.248;2022-08-01T01:32:31;22.80;81.00
43671;DHT22;29267;50.906;7.248;2022-08-01T01:34:50;22.80;80.90
43671;DHT22;29267;50.906;7.248;2022-08-01T01:37:19;22.80;80.80
43671;DHT22;29267;50.906;7.248;2022-08-01T01:39:49;22.80;80.60
43671;DHT22;29267;50.906;7.248;2022-08-01T01:42:17;22.70;80.40
43671;DHT22;29267;50.906;7.248;2022-08-01T01:44:45;22.80;80.40
43671;DHT22;29267;50.906;7.248;2022-08-01T01:47:15;22.80;80.40
43671;DHT22;29267;50.906;7.248;2022-08-01T01:49:43;22.80;80.40
43671;DHT22;29267;50.906;7.248;2022-08-01T01:52:12;22.70;80.30
43671;DHT22;29267;50.906;7.248;2022-08-01T01:54:48;22.80;80.40
43671;DHT22;29267;50.906;7.248;2022-08-01T01:57:16;22.80;80.20
43671;DHT22;29267;50.906;7.248;2022-08-01T01:59:42;22.80;80.10
43671;DHT22;29267;50.906;7.248;2022-08-01T02:02:10;22.80;80.10
43671;DHT22;29267;50.906;7.248;2022-08-01T02:04:40;22.80;80.00
43671;DHT22;29267;50.906;7.248;2022-08-01T02:07:10;22.80;80.00
43671;DHT22;29267;50.906;7.248;2022-08-01T02:09:40;22.70;79.80
43671;DHT22;29267;50.906;7.248;2022-08-01T02:12:07;22.80;79.80
43671;DHT22;29267;50.906;7.248;2022-08-01T02:14:35;22.70;79.60
43671;DHT22;29267;50.906;7.248;2022-08-01T02:17:02;22.70;79.40
43671;DHT22;29267;50.906;7.248;2022-08-01T02:19:33;22.70;79.40
43671;DHT22;29267;50.906;7.248;2022-08-01T02:22:04;22.70;79.50
43671;DHT22;29267;50.906;7.248;2022-08-01T02:27:11;22.70;79.50
43671;DHT22;29267;50.906;7.248;2022-08-01T02:29:42;22.70;79.50
43671;DHT22;29267;50.906;7.248;2022-08-01T02:32:14;22.70;79.50
43671;DHT22;29267;50.906;7.248;2022-08-01T02:34:46;22.70;79.40
43671;DHT22;29267;50.906;7.248;2022-08-01T02:37:14;22.70;79.30
43671;DHT22;29267;50.906;7.248;2022-08-01T02:39:41;22.70;79.20
43671;DHT22;29267;50.906;7.248;2022-08-01T02:42:08;22.70;79.10
43671;DHT22;29267;50.906;7.248;2022-08-01T02:44:39;22.70;79.00
43671;DHT22;29267;50.906;7.248;2022-08-01T02:47:07;22.80;79.10
43671;DHT22;29267;50.906;7.248;2022-08-01T02:49:42;22.70;78.90
43671;DHT22;29267;50.906;7.248;2022-08-01T02:52:13;22.70;78.80
43671;DHT22;29267;50.906;7.248;2022-08-01T02:54:40;22.70;78.70
43671;DHT22;29267;50.906;7.248;2022-08-01T02:57:08;22.70;78.70
43671;DHT22;29267;50.906;7.248;2022-08-01T02:59:36;22.70;78.60
43671;DHT22;29267;50.906;7.248;2022-08-01T03:02:04;22.70;78.50
43671;DHT22;29267;50.906;7.248;2022-08-01T03:04:33;22.70;78.50
43671;DHT22;29267;50.906;7.248;2022-08-01T03:07:00;22.70;78.40
43671;DHT22;29267;50.906;7.248;2022-08-01T03:09:30;22.70;78.20
43671;DHT22;29267;50.906;7.248;2022-08-01T03:12:00;22.70;78.20
43671;DHT22;29267;50.906;7.248;2022-08-01T03:14:28;22.70;78.20
43671;DHT22;29267;50.906;7.248;2022-08-01T03:16:56;22.70;78.10
43671;DHT22;29267;50.906;7.248;2022-08-01T03:19:24;22.70;78.00
43671;DHT22;29267;50.906;7.248;2022-08-01T03:21:52;22.70;77.90
43671;DHT22;29267;50.906;7.248;2022-08-01T03:24:19;22.70;77.90
43671;DHT22;29267;50.906;7.248;2022-08-01T03:26:47;22.70;77.90
43671;DHT22;29267;50.906;7.248;2022-08-01T03:29:17;22.70;77.90
43671;DHT22;29267;50.906;7.248;2022-08-01T03:31:46;22.70;77.80
43671;DHT22;29267;50.906;7.248;2022-08-01T03:34:13;22.70;77.80
43671;DHT22;29267;50.906;7.248;2022-08-01T03:36:49;22.70;77.70
43671;DHT22;29267;50.906;7.248;2022-08-01T03:39:17;22.70;77.70
43671;DHT22;29267;50.906;7.248;2022-08-01T03:41:51;22.70;77.60
43671;DHT22;29267;50.906;7.248;2022-08-01T03:44:22;22.70;77.50
43671;DHT22;29267;50.906;7.248;2022-08-01T03:47:09;22.70;77.50
43671;DHT22;29267;50.906;7.248;2022-08-01T03:49:40;22.60;77.20
43671;DHT22;29267;50.906;7.248;2022-08-01T03:52:08;22.70;77.40
43671;DHT22;29267;50.906;7.248;2022-08-01T03:54:42;22.70;77.40
43671;DHT22;29267;50.906;7.248;2022-08-01T03:57:10;22.60;77.20
43671;DHT22;29267;50.906;7.248;2022-08-01T03:59:37;22.70;77.30
43671;DHT22;29267;50.906;7.248;2022-08-01T04:02:04;22.70;77.20
43671;DHT22;29267;50.906;7.248;2022-08-01T04:04:30;22.60;77.20
43671;DHT22;29267;50.906;7.248;2022-08-01T04:06:56;22.60;77.10
43671;DHT22;29267;50.906;7.248;2022-08-01T04:09:22;22.60;77.50
43671;DHT22;29267;50.906;7.248;2022-08-01T04:11:48;22.60;78.80
43671;DHT22;29267;50.906;7.248;2022-08-01T04:14:14;22.50;80.20
43671;DHT22;29267;50.906;7.248;2022-08-01T04:16:40;22.50;80.70
43671;DHT22;29267;50.906;7.248;2022-08-01T04:19:06;22.40;81.30
43671;DHT22;29267;50.906;7.248;2022-08-01T04:21:34;22.40;81.80
43671;DHT22;29267;50.906;7.248;2022-08-01T04:24:03;22.40;81.90
43671;DHT22;29267;50.906;7.248;2022-08-01T04:26:32;22.30;82.00
43671;DHT22;29267;50.906;7.248;2022-08-01T04:29:02;22.30;82.20
43671;DHT22;29267;50.906;7.248;2022-08-01T04:31:29;22.20;82.30
43671;DHT22;29267;50.906;7.248;2022-08-01T04:33:56;22.20;82.60
43671;DHT22;29267;50.906;7.248;2022-08-01T04:36:23;22.20;82.80
43671;DHT22;29267;50.906;7.248;2022-08-01T04:38:55;22.20;83.00
43671;DHT22;29267;50.906;7.248;2022-08-01T04:41:23;22.20;83.20
43671;DHT22;29267;50.906;7.248;2022-08-01T04:43:49;22.20;83.50
43671;DHT22;29267;50.906;7.248;2022-08-01T04:46:17;22.10;83.50
43671;DHT22;29267;50.906;7.248;2022-08-01T04:48:45;22.10;83.70
43671;DHT22;29267;50.906;7.248;2022-08-01T04:51:13;22.10;83.90
43671;DHT22;29267;50.906;7.248;2022-08-01T04:53:41;22.10;84.10
43671;DHT22;29267;50.906;7.248;2022-08-01T04:56:06;22.10;84.30
43671;DHT22;29267;50.906;7.248;2022-08-01T04:58:32;22.00;84.40
43671;DHT22;29267;50.906;7.248;2022-08-01T05:00:58;22.00;84.60
43671;DHT22;29267;50.906;7.248;2022-08-01T05:03:24;22.10;84.90
43671;DHT22;29267;50.906;7.248;2022-08-01T05:05:50;22.00;85.00
43671;DHT22;29267;50.906;7.248;2022-08-01T05:08:15;22.00;85.20
43671;DHT22;29267;50.906;7.248;2022-08-01T05:10:42;22.00;85.40
43671;DHT22;29267;50.906;7.248;2022-08-01T05:13:08;22.00;85.50
43671;DHT22;29267;50.906;7.248;2022-08-01T05:15:37;22.00;85.60
43671;DHT22;29267;50.906;7.248;2022-08-01T05:18:03;22.00;85.70
43671;DHT22;29267;50.906;7.248;2022-08-01T05:20:31;22.00;85.80
43671;DHT22;29267;50.906;7.248;2022-08-01T05:22:57;22.00;85.90
43671;DHT22;29267;50.906;7.248;2022-08-01T05:25:23;22.00;86.10
43671;DHT22;29267;50.906;7.248;2022-08-01T05:27:49;22.00;86.40
43671;DHT22;29267;50.906;7.248;2022-08-01T05:30:15;21.90;86.50
43671;DHT22;29267;50.906;7.248;2022-08-01T05:32:41;21.90;86.50
43671;DHT22;29267;50.906;7.248;2022-08-01T05:35:07;21.90;86.70
43671;DHT22;29267;50.906;7.248;2022-08-01T05:37:33;21.90;86.70
43671;DHT22;29267;50.906;7.248;2022-08-01T05:39:59;21.90;86.80
43671;DHT22;29267;50.906;7.248;2022-08-01T05:42:25;21.90;87.00
43671;DHT22;29267;50.906;7.248;2022-08-01T05:44:51;21.90;87.20
43671;DHT22;29267;50.906;7.248;2022-08-01T05:47:17;21.90;87.30
43671;DHT22;29267;50.906;7.248;2022-08-01T05:49:44;21.90;87.40
43671;DHT22;29267;50.906;7.248;2022-08-01T05:52:10;21.90;87.70
43671;DHT22;29267;50.906;7.248;2022-08-01T05:54:36;21.90;88.00
43671;DHT22;29267;50.906;7.248;2022-08-01T05:57:02;21.90;88.20
43671;DHT22;29267;50.906;7.248;2022-08-01T05:59:29;21.90;88.30
43671;DHT22;29267;50.906;7.248;2022-08-01T06:01:55;21.90;88.40
43671;DHT22;29267;50.906;7.248;2022-08-01T06:04:21;21.90;88.70
43671;DHT22;29267;50.906;7.248;2022-08-01T06:06:47;21.90;89.00
43671;DHT22;29267;50.906;7.248;2022-08-01T06:09:13;21.90;89.30
43671;DHT22;29267;50.906;7.248;2022-08-01T06:11:38;21.90;89.50
43671;DHT22;29267;50.906;7.248;2022-08-01T06:14:05;21.90;89.50
43671;DHT22;29267;50.906;7.248;2022-08-01T06:16:31;21.90;89.50
43671;DHT22;29267;50.906;7.248;2022-08-01T06:18:56;21.90;89.40
43671;DHT22;29267;50.906;7.248;2022-08-01T06:21:22;21.90;89.40
43671;DHT22;29267;50.906;7.248;2022-08-01T06:23:48;21.90;89.50
43671;DHT22;29267;50.906;7.248;2022-08-01T06:26:17;21.90;89.60
43671;DHT22;29267;50.906;7.248;2022-08-01T06:28:43;21.80;89.70
43671;DHT22;29267;50.906;7.248;2022-08-01T06:31:09;21.90;89.80
43671;DHT22;29267;50.906;7.248;2022-08-01T06:33:37;21.90;89.80
43671;DHT22;29267;50.906;7.248;2022-08-01T06:36:03;21.90;89.90
43671;DHT22;29267;50.906;7.248;2022-08-01T06:38:29;21.90;90.00
43671;DHT22;29267;50.906;7.248;2022-08-01T06:40:56;21.80;90.10
43671;DHT22;29267;50.906;7.248;2022-08-01T06:43:21;21.90;90.10
43671;DHT22;29267;50.906;7.248;2022-08-01T06:45:48;21.80;90.10
43671;DHT22;29267;50.906;7.248;2022-08-01T06:48:14;21.90;90.10
43671;DHT22;29267;50.906;7.248;2022-08-01T06:50:40;21.80;90.20
43671;DHT22;29267;50.906;7.248;2022-08-01T06:53:05;21.90;90.30
43671;DHT22;29267;50.906;7.248;2022-08-01T06:55:31;21.90;90.40
43671;DHT22;29267;50.906;7.248;2022-08-01T06:57:57;21.90;90.40
43671;DHT22;29267;50.906;7.248;2022-08-01T07:00:25;21.90;90.40
43671;DHT22;29267;50.906;7.248;2022-08-01T07:02:55;21.90;90.70
43671;DHT22;29267;50.906;7.248;2022-08-01T07:05:22;21.90;90.40
43671;DHT22;29267;50.906;7.248;2022-08-01T07:07:48;21.90;90.40
43671;DHT22;29267;50.906;7.248;2022-08-01T07:10:14;21.90;90.40
43671;DHT22;29267;50.906;7.248;2022-08-01T07:12:40;21.90;90.40
43671;DHT22;29267;50.906;7.248;2022-08-01T07:15:07;21.80;90.30
43671;DHT22;29267;50.906;7.248;2022-08-01T07:17:42;21.90;90.30
43671;DHT22;29267;50.906;7.248;2022-08-01T07:20:09;21.80;90.30
43671;DHT22;29267;50.906;7.248;2022-08-01T07:22:35;21.90;90.20
43671;DHT22;29267;50.906;7.248;2022-08-01T07:25:02;21.90;90.20
43671;DHT22;29267;50.906;7.248;2022-08-01T07:27:28;21.90;90.20
43671;DHT22;29267;50.906;7.248;2022-08-01T07:29:54;21.80;90.20
43671;DHT22;29267;50.906;7.248;2022-08-01T07:32:20;21.90;90.10
43671;DHT22;29267;50.906;7.248;2022-08-01T07:34:46;21.80;90.10
43671;DHT22;29267;50.906;7.248;2022-08-01T07:37:11;21.90;90.10
43671;DHT22;29267;50.906;7.248;2022-08-01T07:39:37;21.80;90.10
43671;DHT22;29267;50.906;7.248;2022-08-01T07:42:03;21.80;90.20
43671;DHT22;29267;50.906;7.248;2022-08-01T07:44:29;21.80;90.20
43671;DHT22;29267;50.906;7.248;2022-08-01T07:46:55;21.80;90.10
43671;DHT22;29267;50.906;7.248;2022-08-01T07:49:20;21.80;90.10
43671;DHT22;29267;50.906;7.248;2022-08-01T07:51:47;21.80;90.20
43671;DHT22;29267;50.906;7.248;2022-08-01T07:54:13;21.80;90.20
43671;DHT22;29267;50.906;7.248;2022-08-01T07:56:39;21.80;90.20
43671;DHT22;29267;50.906;7.248;2022-08-01T07:59:05;21.80;90.20
43671;DHT22;29267;50.906;7.248;2022-08-01T08:01:31;21.80;90.20
43671;DHT22;29267;50.906;7.248;2022-08-01T08:03:56;21.80;90.20
43671;DHT22;29267;50.906;7.248;2022-08-01T08:06:22;21.80;90.30
43671;DHT22;29267;50.906;7.248;2022-08-01T08:08:48;21.80;90.20
43671;DHT22;29267;50.906;7.248;2022-08-01T08:11:14;21.80;90.20
43671;DHT22;29267;50.906;7.248;2022-08-01T08:13:40;21.80;90.20
43671;DHT22;29267;50.906;7.248;2022-08-01T08:16:06;21.80;90.30
43671;DHT22;29267;50.906;7.248;2022-08-01T08:18:31;21.80;90.20
43671;DHT22;29267;50.906;7.248;2022-08-01T08:20:57;21.80;90.30
43671;DHT22;29267;50.906;7.248;2022-08-01T08:23:23;21.80;90.30
43671;DHT22;29267;50.906;7.248;2022-08-01T08:26:07;21.80;90.30
43671;DHT22;29267;50.906;7.248;2022-08-01T08:28:33;21.80;90.30
43671;DHT22;29267;50.906;7.248;2022-08-01T08:30:59;21.80;90.30
43671;DHT22;29267;50.906;7.248;2022-08-01T08:33:25;21.80;90.30
43671;DHT22;29267;50.906;7.248;2022-08-01T08:35:50;21.80;90.30
43671;DHT22;29267;50.906;7.248;2022-08-01T08:38:16;21.80;90.30
43671;DHT22;29267;50.906;7.248;2022-08-01T08:40:42;21.80;90.30
43671;DHT22;29267;50.906;7.248;2022-08-01T08:43:08;21.80;90.40
43671;DHT22;29267;50.906;7.248;2022-08-01T08:45:34;21.80;90.40
43671;DHT22;29267;50.906;7.248;2022-08-01T08:48:01;21.80;90.40
43671;DHT22;29267;50.906;7.248;2022-08-01T08:50:27;21.80;90.40
43671;DHT22;29267;50.906;7.248;2022-08-01T08:52:55;21.80;90.40
43671;DHT22;29267;50.906;7.248;2022-08-01T08:55:22;21.70;90.40
43671;DHT22;29267;50.906;7.248;2022-08-01T08:57:49;21.80;90.40
43671;DHT22;29267;50.906;7.248;2022-08-01T09:00:15;21.80;90.50
43671;DHT22;29267;50.906;7.248;2022-08-01T09:02:47;21.80;90.50
43671;DHT22;29267;50.906;7.248;2022-08-01T09:05:14;21.80;90.50
43671;DHT22;29267;50.906;7.248;2022-08-01T09:07:40;21.80;90.50
43671;DHT22;29267;50.906;7.248;2022-08-01T09:10:08;21.80;90.50
43671;DHT22;29267;50.906;7.248;2022-08-01T09:12:36;21.80;90.50
43671;DHT22;29267;50.906;7.248;2022-08-01T09:15:03;21.80;90.50
43671;DHT22;29267;50.906;7.248;2022-08-01T09:17:39;21.80;90.50
43671;DHT22;29267;50.906;7.248;2022-08-01T09:20:05;21.80;90.50
43671;DHT22;29267;50.906;7.248;2022-08-01T09:22:33;21.80;90.50
43671;DHT22;29267;50.906;7.248;2022-08-01T09:25:05;21.80;90.60
43671;DHT22;29267;50.906;7.248;2022-08-01T09:27:32;21.80;90.60
43671;DHT22;29267;50.906;7.248;2022-08-01T09:30:13;21.80;90.60
43671;DHT22;29267;50.906;7.248;2022-08-01T09:32:56;21.80;90.60
43671;DHT22;29267;50.906;7.248;2022-08-01T09:37:55;21.80;90.60
43671;DHT22;29267;50.906;7.248;2022-08-01T09:40:52;21.80;90.60
43671;DHT22;29267;50.906;7.248;2022-08-01T09:43:20;21.80;90.60
43671;DHT22;29267;50.906;7.248;2022-08-01T09:45:47;21.80;90.70
43671;DHT22;29267;50.906;7.248;2022-08-01T09:48:13;21.80;90.60
43671;DHT22;29267;50.906;7.248;2022-08-01T09:50:44;21.80;90.70
43671;DHT22;29267;50.906;7.248;2022-08-01T09:53:11;21.80;90.70
43671;DHT22;29267;50.906;7.248;2022-08-01T09:55:39;21.80;90.70
43671;DHT22;29267;50.906;7.248;2022-08-01T09:58:06;21.80;90.70
43671;DHT22;29267;50.906;7.248;2022-08-01T10:00:32;21.80;90.70
43671;DHT22;29267;50.906;7.248;2022-08-01T10:02:59;21.80;90.70
43671;DHT22;29267;50.906;7.248;2022-08-01T10:05:35;21.70;90.70
43671;DHT22;29267;50.906;7.248;2022-08-01T10:08:03;21.80;90.80
43671;DHT22;29267;50.906;7.248;2022-08-01T10:10:30;21.70;90.70
43671;DHT22;29267;50.906;7.248;2022-08-01T10:12:58;21.70;90.80
43671;DHT22;29267;50.906;7.248;2022-08-01T10:15:26;21.80;90.80
43671;DHT22;29267;50.906;7.248;2022-08-01T10:17:57;21.70;90.80
43671;DHT22;29267;50.906;7.248;2022-08-01T10:20:28;21.80;90.80
43671;DHT22;29267;50.906;7.248;2022-08-01T10:22:55;21.80;90.80
43671;DHT22;29267;50.906;7.248;2022-08-01T10:25:23;21.80;90.80
43671;DHT22;29267;50.906;7.248;2022-08-01T10:27:53;21.80;90.80
43671;DHT22;29267;50.906;7.248;2022-08-01T10:30:22;21.80;90.80
43671;DHT22;29267;50.906;7.248;2022-08-01T10:32:50;21.80;90.90
43671;DHT22;29267;50.906;7.248;2022-08-01T10:35:18;21.80;90.90
43671;DHT22;29267;50.906;7.248;2022-08-01T10:37:45;21.80;90.90
43671;DHT22;29267;50.906;7.248;2022-08-01T10:40:13;21.90;95.60
43671;DHT22;29267;50.906;7.248;2022-08-01T10:42:43;21.80;94.10
43671;DHT22;29267;50.906;7.248;2022-08-01T10:45:12;21.80;93.60
43671;DHT22;29267;50.906;7.248;2022-08-01T10:50:40;21.80;92.70
43671;DHT22;29267;50.906;7.248;2022-08-01T10:53:16;21.80;92.40
43671;DHT22;29267;50.906;7.248;2022-08-01T10:55:50;21.80;92.40
43671;DHT22;29267;50.906;7.248;2022-08-01T10:58:21;21.80;92.40
43671;DHT22;29267;50.906;7.248;2022-08-01T11:00:47;21.80;92.50
43671;DHT22;29267;50.906;7.248;2022-08-01T11:03:13;21.70;92.40
43671;DHT22;29267;50.906;7.248;2022-08-01T11:05:42;21.80;92.40
43671;DHT22;29267;50.906;7.248;2022-08-01T11:08:27;21.70;92.40
43671;DHT22;29267;50.906;7.248;2022-08-01T11:11:00;21.80;92.40
43671;DHT22;29267;50.906;7.248;2022-08-01T11:18:52;21.70;92.40
43671;DHT22;29267;50.906;7.248;2022-08-01T11:21:18;21.70;92.50
43671;DHT22;29267;50.906;7.248;2022-08-01T11:23:48;21.70;92.50
43671;DHT22;29267;50.906;7.248;2022-08-01T11:26:16;21.70;92.50
43671;DHT22;29267;50.906;7.248;2022-08-01T11:28:44;21.90;92.50
43671;DHT22;29267;50.906;7.248;2022-08-01T11:38:41;22.80;92.40
43671;DHT22;29267;50.906;7.248;2022-08-01T11:41:25;23.00;92.10
43671;DHT22;29267;50.906;7.248;2022-08-01T11:46:50;23.20;91.60
43671;DHT22;29267;50.906;7.248;2022-08-01T11:54:30;23.40;91.20
43671;DHT22;29267;50.906;7.248;2022-08-01T11:57:00;23.40;91.10
43671;DHT22;29267;50.906;7.248;2022-08-01T11:59:27;23.50;91.10
43671;DHT22;29267;50.906;7.248;2022-08-01T12:01:53;23.50;91.20
43671;DHT22;29267;50.906;7.248;2022-08-01T12:04:20;23.50;91.00
43671;DHT22;29267;50.906;7.248;2022-08-01T12:06:46;23.50;90.90
43671;DHT22;29267;50.906;7.248;2022-08-01T12:09:17;23.50;90.90
43671;DHT22;29267;50.906;7.248;2022-08-01T12:11:43;23.50;90.90
43671;DHT22;29267;50.906;7.248;2022-08-01T12:14:09;23.50;90.90
43671;DHT22;29267;50.906;7.248;2022-08-01T12:16:37;23.50;91.00
43671;DHT22;29267;50.906;7.248;2022-08-01T12:19:03;23.50;91.20
43671;DHT22;29267;50.906;7.248;2022-08-01T12:21:30;23.50;91.40
43671;DHT22;29267;50.906;7.248;2022-08-01T12:24:03;23.40;91.50
43671;DHT22;29267;50.906;7.248;2022-08-01T12:26:41;23.40;91.40
43671;DHT22;29267;50.906;7.248;2022-08-01T12:29:07;23.30;91.20
43671;DHT22;29267;50.906;7.248;2022-08-01T12:31:34;23.20;91.10
43671;DHT22;29267;50.906;7.248;2022-08-01T12:34:26;23.10;91.20
43671;DHT22;29267;50.906;7.248;2022-08-01T12:36:55;23.00;91.40
43671;DHT22;29267;50.906;7.248;2022-08-01T12:39:22;22.90;91.50
43671;DHT22;29267;50.906;7.248;2022-08-01T12:41:47;22.80;91.60
43671;DHT22;29267;50.906;7.248;2022-08-01T12:44:14;22.70;91.70
43671;DHT22;29267;50.906;7.248;2022-08-01T12:46:41;22.60;91.90
43671;DHT22;29267;50.906;7.248;2022-08-01T12:49:07;22.50;91.90
43671;DHT22;29267;50.906;7.248;2022-08-01T12:51:33;22.50;91.90
43671;DHT22;29267;50.906;7.248;2022-08-01T12:53:59;22.40;91.90
43671;DHT22;29267;50.906;7.248;2022-08-01T12:56:34;22.40;91.90
43671;DHT22;29267;50.906;7.248;2022-08-01T12:59:00;22.40;91.90
43671;DHT22;29267;50.906;7.248;2022-08-01T13:01:26;22.40;92.00
43671;DHT22;29267;50.906;7.248;2022-08-01T13:04:03;22.30;92.00
43671;DHT22;29267;50.906;7.248;2022-08-01T13:06:31;22.30;92.00
43671;DHT22;29267;50.906;7.248;2022-08-01T13:09:08;22.30;92.00
43671;DHT22;29267;50.906;7.248;2022-08-01T13:11:36;22.30;92.00
43671;DHT22;29267;50.906;7.248;2022-08-01T13:14:01;22.30;92.30
43671;DHT22;29267;50.906;7.248;2022-08-01T13:16:27;22.30;92.00
43671;DHT22;29267;50.906;7.248;2022-08-01T13:18:55;22.20;92.00
43671;DHT22;29267;50.906;7.248;2022-08-01T13:21:27;22.20;92.00
43671;DHT22;29267;50.906;7.248;2022-08-01T13:24:08;22.20;92.10
43671;DHT22;29267;50.906;7.248;2022-08-01T13:26:58;22.20;92.00
43671;DHT22;29267;50.906;7.248;2022-08-01T13:31:58;22.20;92.10
43671;DHT22;29267;50.906;7.248;2022-08-01T13:34:34;22.20;92.10
43671;DHT22;29267;50.906;7.248;2022-08-01T13:37:01;22.20;92.10
43671;DHT22;29267;50.906;7.248;2022-08-01T13:39:28;22.20;92.10
43671;DHT22;29267;50.906;7.248;2022-08-01T13:42:15;22.20;92.10
43671;DHT22;29267;50.906;7.248;2022-08-01T13:44:42;22.20;92.10
43671;DHT22;29267;50.906;7.248;2022-08-01T13:47:08;22.20;92.10
43671;DHT22;29267;50.906;7.248;2022-08-01T13:49:34;22.20;92.10
43671;DHT22;29267;50.906;7.248;2022-08-01T13:52:00;22.10;92.10
43671;DHT22;29267;50.906;7.248;2022-08-01T13:54:26;22.10;92.10
43671;DHT22;29267;50.906;7.248;2022-08-01T13:56:53;22.10;92.10
43671;DHT22;29267;50.906;7.248;2022-08-01T13:59:19;22.10;92.10
43671;DHT22;29267;50.906;7.248;2022-08-01T14:01:45;22.10;92.10
43671;DHT22;29267;50.906;7.248;2022-08-01T14:04:12;22.10;92.10
43671;DHT22;29267;50.906;7.248;2022-08-01T14:06:38;22.10;92.10
43671;DHT22;29267;50.906;7.248;2022-08-01T14:09:05;22.10;92.10
43671;DHT22;29267;50.906;7.248;2022-08-01T14:11:31;22.10;92.10
43671;DHT22;29267;50.906;7.248;2022-08-01T14:13:56;22.10;92.10
43671;DHT22;29267;50.906;7.248;2022-08-01T14:16:22;22.10;92.10
43671;DHT22;29267;50.906;7.248;2022-08-01T14:18:48;22.10;92.10
43671;DHT22;29267;50.906;7.248;2022-08-01T14:21:14;22.10;92.10
43671;DHT22;29267;50.906;7.248;2022-08-01T14:23:41;22.10;92.10
43671;DHT22;29267;50.906;7.248;2022-08-01T14:26:08;22.10;92.10
43671;DHT22;29267;50.906;7.248;2022-08-01T14:28:39;22.10;92.10
43671;DHT22;29267;50.906;7.248;2022-08-01T14:31:06;22.10;92.10
43671;DHT22;29267;50.906;7.248;2022-08-01T14:33:33;22.10;92.10
43671;DHT22;29267;50.906;7.248;2022-08-01T14:35:58;22.10;92.10
43671;DHT22;29267;50.906;7.248;2022-08-01T14:38:24;22.10;92.10
43671;DHT22;29267;50.906;7.248;2022-08-01T14:40:50;22.10;92.10
43671;DHT22;29267;50.906;7.248;2022-08-01T14:43:17;22.10;92.10
43671;DHT22;29267;50.906;7.248;2022-08-01T14:45:44;22.10;92.10
43671;DHT22;29267;50.906;7.248;2022-08-01T14:48:10;22.10;92.10
43671;DHT22;29267;50.906;7.248;2022-08-01T14:50:36;22.10;92.10
43671;DHT22;29267;50.906;7.248;2022-08-01T14:53:02;22.10;92.10
43671;DHT22;29267;50.906;7.248;2022-08-01T14:55:28;22.10;92.10
43671;DHT22;29267;50.906;7.248;2022-08-01T14:57:54;22.10;92.10
43671;DHT22;29267;50.906;7.248;2022-08-01T15:00:19;22.10;92.20
43671;DHT22;29267;50.906;7.248;2022-08-01T15:02:45;22.10;92.20
43671;DHT22;29267;50.906;7.248;2022-08-01T15:05:11;22.10;92.20
43671;DHT22;29267;50.906;7.248;2022-08-01T15:07:37;22.10;92.20
43671;DHT22;29267;50.906;7.248;2022-08-01T15:10:06;22.10;92.20
43671;DHT22;29267;50.906;7.248;2022-08-01T15:12:33;22.10;92.20
43671;DHT22;29267;50.906;7.248;2022-08-01T15:14:59;22.10;92.20
43671;DHT22;29267;50.906;7.248;2022-08-01T15:17:29;22.10;92.20
43671;DHT22;29267;50.906;7.248;2022-08-01T15:19:59;22.10;92.20
43671;DHT22;29267;50.906;7.248;2022-08-01T15:22:25;22.10;92.20
43671;DHT22;29267;50.906;7.248;2022-08-01T15:24:53;22.00;92.20
43671;DHT22;29267;50.906;7.248;2022-08-01T15:27:19;22.10;92.20
43671;DHT22;29267;50.906;7.248;2022-08-01T15:29:47;22.00;92.20
43671;DHT22;29267;50.906;7.248;2022-08-01T15:32:13;22.10;92.20
43671;DHT22;29267;50.906;7.248;2022-08-01T15:34:40;22.10;92.20
43671;DHT22;29267;50.906;7.248;2022-08-01T15:37:06;22.10;92.50
43671;DHT22;29267;50.906;7.248;2022-08-01T15:39:33;22.10;92.20
43671;DHT22;29267;50.906;7.248;2022-08-01T15:42:02;22.10;92.20
43671;DHT22;29267;50.906;7.248;2022-08-01T15:44:28;22.10;92.20
43671;DHT22;29267;50.906;7.248;2022-08-01T15:46:54;22.10;92.20
43671;DHT22;29267;50.906;7.248;2022-08-01T15:49:23;22.10;92.20
43671;DHT22;29267;50.906;7.248;2022-08-01T15:51:49;22.10;92.20
43671;DHT22;29267;50.906;7.248;2022-08-01T15:54:16;22.10;92.20
43671;DHT22;29267;50.906;7.248;2022-08-01T15:56:43;22.10;92.20
43671;DHT22;29267;50.906;7.248;2022-08-01T15:59:09;22.10;92.20
43671;DHT22;29267;50.906;7.248;2022-08-01T16:01:35;22.10;92.20
43671;DHT22;29267;50.906;7.248;2022-08-01T16:04:01;22.10;92.20
43671;DHT22;29267;50.906;7.248;2022-08-01T16:06:27;22.10;92.20
43671;DHT22;29267;50.906;7.248;2022-08-01T16:08:53;22.10;92.20
43671;DHT22;29267;50.906;7.248;2022-08-01T16:11:19;22.10;92.20
43671;DHT22;29267;50.906;7.248;2022-08-01T16:13:45;22.10;92.20
43671;DHT22;29267;50.906;7.248;2022-08-01T16:16:13;22.10;92.20
43671;DHT22;29267;50.906;7.248;2022-08-01T16:18:41;22.10;92.20